Time;durP1;ratioP1;P1;durP2;ratioP2;P2;SDS_P1;SDS_P2;PMS_P1;PMS_P2;Temp;Humidity;BMP_temperature;BMP_pressure;BME280_temperature;BME280_humidity;BME280_pressure;Samples;Min_cycle;Max_cycle;Signal;HPM_P1;HPM_P2
2021/08/01 00:01:01;;;;;;;6.22;3.30;;;;;;;;;;5129764;27;20474;-75
2021/08/01 00:03:27;;;;;;;8.13;3.70;;;;;;;;;;5130230;28;20057;-75
2021/08/01 00:05:52;;;;;;;8.60;3.63;;;;;;;;;;5131085;28;20066;-75
2021/08/01 00:08:18;;;;;;;9.32;3.40;;;;;;;;;;5131209;28;20023;-74
2021/08/01 00:10:43;;;;;;;6.95;3.30;;;;;;;;;;5131293;28;20030;-76
2021/08/01 00:13:09;;;;;;;7.38;3.20;;;;;;;;;;5130883;28;20026;-75
2021/08/01 00:15:34;;;;;;;5.57;3.33;;;;;;;;;;5131508;28;20347;-75
2021/08/01 00:18:01;;;;;;;8.00;3.30;;;;;;;;;;5129671;28;20034;-73
2021/08/01 00:20:27;;;;;;;8.45;3.45;;;;;;;;;;5131194;28;20024;-73
2021/08/01 00:22:52;;;;;;;11.10;3.20;;;;;;;;;;5130288;28;20133;-73
2021/08/01 00:25:18;;;;;;;5.72;2.45;;;;;;;;;;5131543;28;20055;-73
2021/08/01 00:27:43;;;;;;;3.95;2.22;;;;;;;;;;5131170;28;20073;-73
2021/08/01 00:30:10;;;;;;;5.10;2.60;;;;;;;;;;5130945;28;20026;-73
2021/08/01 00:32:39;;;;;;;7.55;3.60;;;;;;;;;;5131260;28;20072;-73
2021/08/01 00:35:06;;;;;;;6.90;3.30;;;;;;;;;;5129742;28;20110;-73
2021/08/01 00:37:32;;;;;;;6.15;3.20;;;;;;;;;;5131106;28;20094;-74
2021/08/01 00:39:58;;;;;;;13.95;3.65;;;;;;;;;;5129144;28;20485;-72
2021/08/01 00:42:24;;;;;;;9.88;3.47;;;;;;;;;;5131170;28;20026;-74
2021/08/01 00:44:49;;;;;;;8.85;3.15;;;;;;;;;;5130346;28;20023;-73
2021/08/01 00:47:15;;;;;;;8.80;3.13;;;;;;;;;;5131048;28;20039;-73
2021/08/01 00:49:40;;;;;;;7.95;3.00;;;;;;;;;;5131544;28;20019;-73
2021/08/01 00:52:06;;;;;;;8.38;2.70;;;;;;;;;;5131063;28;20220;-73
2021/08/01 00:54:34;;;;;;;6.55;2.67;;;;;;;;;;5131249;28;20023;-73
2021/08/01 00:57:03;;;;;;;7.78;2.83;;;;;;;;;;5131107;28;20065;-73
2021/08/01 00:59:37;;;;;;;8.70;2.78;;;;;;;;;;5131167;28;20373;-74
2021/08/01 01:02:15;;;;;;;6.63;2.50;;;;;;;;;;5131069;28;20599;-73
2021/08/01 01:05:06;;;;;;;7.18;2.70;;;;;;;;;;5130238;28;20098;-74
2021/08/01 01:08:01;;;;;;;6.47;2.50;;;;;;;;;;5131095;28;20046;-73
2021/08/01 01:10:39;;;;;;;4.72;2.40;;;;;;;;;;5130885;28;20056;-73
2021/08/01 01:13:18;;;;;;;9.35;2.67;;;;;;;;;;5129561;27;20027;-73
2021/08/01 01:15:53;;;;;;;9.30;2.47;;;;;;;;;;5134480;27;20023;-74
2021/08/01 01:18:22;;;;;;;8.32;2.30;;;;;;;;;;5134714;27;20058;-74
2021/08/01 01:21:06;;;;;;;8.43;2.58;;;;;;;;;;5134974;27;20019;-74
2021/08/01 01:23:41;;;;;;;9.80;2.55;;;;;;;;;;5134691;27;20027;-74
2021/08/01 01:26:12;;;;;;;6.95;2.58;;;;;;;;;;5134266;27;20031;-74
2021/08/01 01:28:44;;;;;;;7.32;2.40;;;;;;;;;;5134452;27;20027;-74
2021/08/01 01:31:18;;;;;;;9.27;2.25;;;;;;;;;;5134173;27;20035;-74
2021/08/01 01:34:02;;;;;;;9.20;2.65;;;;;;;;;;5134413;27;20026;-74
2021/08/01 01:36:29;;;;;;;7.45;3.05;;;;;;;;;;5134378;27;20292;-74
2021/08/01 01:38:55;;;;;;;6.18;2.25;;;;;;;;;;5134169;27;20046;-74
2021/08/01 01:41:24;;;;;;;5.70;2.15;;;;;;;;;;5134207;27;20030;-74
2021/08/01 01:43:52;;;;;;;6.75;2.22;;;;;;;;;;5134152;27;20023;-74
2021/08/01 01:46:18;;;;;;;9.95;3.05;;;;;;;;;;5133807;27;20126;-74
2021/08/01 01:48:44;;;;;;;8.80;2.72;;;;;;;;;;5115697;27;20131;-74
2021/08/01 01:51:10;;;;;;;8.43;3.95;;;;;;;;;;5133918;27;20164;-73
2021/08/01 01:53:37;;;;;;;7.35;3.38;;;;;;;;;;5134121;27;20023;-73
2021/08/01 01:56:02;;;;;;;12.07;3.38;;;;;;;;;;5134147;27;20117;-73
2021/08/01 01:58:29;;;;;;;8.32;3.25;;;;;;;;;;5133956;27;20047;-73
2021/08/01 02:00:54;;;;;;;5.45;2.53;;;;;;;;;;5133712;27;20027;-72
2021/08/01 02:03:19;;;;;;;12.23;3.20;;;;;;;;;;5133978;27;20519;-72
2021/08/01 02:05:45;;;;;;;13.63;3.97;;;;;;;;;;5133756;27;20023;-72
2021/08/01 02:08:11;;;;;;;9.93;4.00;;;;;;;;;;5133575;27;20051;-72
2021/08/01 02:10:47;;;;;;;7.22;4.00;;;;;;;;;;5133741;27;20027;-72
2021/08/01 02:13:18;;;;;;;9.43;4.30;;;;;;;;;;5133400;27;20030;-72
2021/08/01 02:15:54;;;;;;;9.32;4.65;;;;;;;;;;5133547;27;20022;-72
2021/08/01 02:18:44;;;;;;;8.82;4.18;;;;;;;;;;5133518;27;20462;-72
2021/08/01 02:21:10;;;;;;;16.10;4.75;;;;;;;;;;5132617;27;20395;-72
2021/08/01 02:23:42;;;;;;;8.15;4.18;;;;;;;;;;5133425;27;20052;-72
2021/08/01 02:26:10;;;;;;;14.18;5.00;;;;;;;;;;5132803;27;20015;-72
2021/08/01 02:28:37;;;;;;;8.98;5.22;;;;;;;;;;5133267;27;20027;-72
2021/08/01 02:31:04;;;;;;;16.25;5.78;;;;;;;;;;5133346;27;20068;-73
2021/08/01 02:33:29;;;;;;;7.63;5.07;;;;;;;;;;5133217;27;20023;-73
2021/08/01 02:36:00;;;;;;;10.45;6.18;;;;;;;;;;5133154;27;20117;-73
2021/08/01 02:38:28;;;;;;;10.23;6.40;;;;;;;;;;5133295;27;20023;-72
2021/08/01 02:40:56;;;;;;;10.50;5.70;;;;;;;;;;5133051;27;20065;-73
2021/08/01 02:43:25;;;;;;;10.13;5.40;;;;;;;;;;5133010;27;20027;-73
2021/08/01 02:45:53;;;;;;;9.07;5.20;;;;;;;;;;5132702;27;20378;-72
2021/08/01 02:48:22;;;;;;;7.80;4.45;;;;;;;;;;5132613;27;20470;-73
2021/08/01 02:50:52;;;;;;;5.32;3.95;;;;;;;;;;5132813;27;20086;-73
2021/08/01 02:53:18;;;;;;;8.35;4.40;;;;;;;;;;5132721;27;20382;-72
2021/08/01 02:55:47;;;;;;;6.38;4.05;;;;;;;;;;5132807;27;20041;-72
2021/08/01 02:58:13;;;;;;;5.63;4.13;;;;;;;;;;5132527;27;20019;-72
2021/08/01 03:00:41;;;;;;;7.97;4.20;;;;;;;;;;5132733;27;20115;-72
2021/08/01 03:03:07;;;;;;;10.00;4.93;;;;;;;;;;5132447;27;20027;-72
2021/08/01 03:05:34;;;;;;;6.47;4.50;;;;;;;;;;5132689;27;20027;-72
2021/08/01 03:07:59;;;;;;;7.97;5.47;;;;;;;;;;5132635;27;20050;-72
2021/08/01 03:10:25;;;;;;;10.43;5.90;;;;;;;;;;5132595;27;20543;-72
2021/08/01 03:12:51;;;;;;;6.25;5.65;;;;;;;;;;5132384;27;20021;-72
2021/08/01 03:15:16;;;;;;;8.38;5.45;;;;;;;;;;5132310;27;20475;-72
2021/08/01 03:17:42;;;;;;;7.57;5.63;;;;;;;;;;5132411;27;20062;-72
2021/08/01 03:20:09;;;;;;;8.43;5.72;;;;;;;;;;5132241;27;20370;-71
2021/08/01 03:22:35;;;;;;;11.98;5.40;;;;;;;;;;5132248;27;20023;-72
2021/08/01 03:25:00;;;;;;;7.80;4.65;;;;;;;;;;5132072;27;20023;-71
2021/08/01 03:27:26;;;;;;;7.38;4.68;;;;;;;;;;5132202;27;20038;-71
2021/08/01 03:29:52;;;;;;;6.85;4.80;;;;;;;;;;5132151;27;20026;-71
2021/08/01 03:32:18;;;;;;;8.52;4.82;;;;;;;;;;5131973;27;20019;-72
2021/08/01 03:34:44;;;;;;;6.82;4.43;;;;;;;;;;5132199;27;20470;-71
2021/08/01 03:37:09;;;;;;;8.05;4.68;;;;;;;;;;5131085;27;20023;-72
2021/08/01 03:39:35;;;;;;;9.75;4.85;;;;;;;;;;5132051;27;20030;-72
2021/08/01 03:42:01;;;;;;;9.60;4.78;;;;;;;;;;5131723;27;20031;-72
2021/08/01 03:44:27;;;;;;;7.88;4.75;;;;;;;;;;5131906;27;20034;-72
2021/08/01 03:46:52;;;;;;;10.27;5.45;;;;;;;;;;5131734;27;20122;-72
2021/08/01 03:49:18;;;;;;;9.32;5.85;;;;;;;;;;5131697;27;20631;-72
2021/08/01 03:51:43;;;;;;;8.02;5.00;;;;;;;;;;5131830;27;20542;-72
2021/08/01 03:54:08;;;;;;;9.55;5.00;;;;;;;;;;5131773;27;20047;-72
2021/08/01 03:56:43;;;;;;;10.40;5.40;;;;;;;;;;5131828;27;20072;-72
2021/08/01 03:59:09;;;;;;;7.82;4.78;;;;;;;;;;5131803;27;20020;-72
2021/08/01 04:01:34;;;;;;;11.57;5.30;;;;;;;;;;5131661;28;20037;-72
2021/08/01 04:04:00;;;;;;;8.48;5.00;;;;;;;;;;5131542;28;20034;-72
2021/08/01 04:06:25;;;;;;;6.43;4.80;;;;;;;;;;5131673;28;20513;-72
2021/08/01 04:08:50;;;;;;;8.98;4.18;;;;;;;;;;5131719;28;20192;-72
2021/08/01 04:11:16;;;;;;;7.40;4.22;;;;;;;;;;5131424;28;20378;-72
2021/08/01 04:13:41;;;;;;;7.78;4.63;;;;;;;;;;5131497;28;20102;-72
2021/08/01 04:16:08;;;;;;;7.75;4.07;;;;;;;;;;5131425;28;20076;-72
2021/08/01 04:18:34;;;;;;;6.28;3.70;;;;;;;;;;5131690;28;20485;-71
2021/08/01 04:20:59;;;;;;;5.03;3.25;;;;;;;;;;5131581;28;20124;-71
2021/08/01 04:23:24;;;;;;;8.68;3.45;;;;;;;;;;5131417;28;20050;-71
2021/08/01 04:25:50;;;;;;;5.75;3.40;;;;;;;;;;5113059;28;20030;-71
2021/08/01 04:28:15;;;;;;;5.35;3.22;;;;;;;;;;5131338;28;20019;-72
2021/08/01 04:30:41;;;;;;;6.18;3.75;;;;;;;;;;5131446;28;20120;-72
2021/08/01 04:33:06;;;;;;;5.78;3.42;;;;;;;;;;5131215;28;20027;-72
2021/08/01 04:35:32;;;;;;;6.50;3.13;;;;;;;;;;5131509;28;20022;-72
2021/08/01 04:38:01;;;;;;;6.75;3.25;;;;;;;;;;5131344;28;20031;-72
2021/08/01 04:40:26;;;;;;;4.47;3.25;;;;;;;;;;5131714;28;20023;-72
2021/08/01 04:42:52;;;;;;;5.50;3.30;;;;;;;;;;5131375;28;20023;-72
2021/08/01 04:45:17;;;;;;;9.98;3.00;;;;;;;;;;5112745;28;20359;-72
2021/08/01 04:47:42;;;;;;;4.55;3.10;;;;;;;;;;5132071;27;20100;-72
2021/08/01 04:50:08;;;;;;;5.10;2.72;;;;;;;;;;5135027;27;20023;-72
2021/08/01 04:52:34;;;;;;;4.68;2.67;;;;;;;;;;5135072;27;20023;-72
2021/08/01 04:54:59;;;;;;;4.70;2.72;;;;;;;;;;5135186;27;20027;-71
2021/08/01 04:57:24;;;;;;;6.03;2.78;;;;;;;;;;5135030;27;20605;-71
2021/08/01 04:59:50;;;;;;;7.38;2.70;;;;;;;;;;5135071;27;20019;-72
2021/08/01 05:02:15;;;;;;;6.55;3.72;;;;;;;;;;5134818;27;20060;-72
2021/08/01 05:04:40;;;;;;;4.88;2.70;;;;;;;;;;5135000;27;20486;-72
2021/08/01 05:07:06;;;;;;;6.15;2.92;;;;;;;;;;5134758;27;20031;-72
2021/08/01 05:09:31;;;;;;;4.45;2.30;;;;;;;;;;5134828;27;20058;-72
2021/08/01 05:11:56;;;;;;;6.20;2.50;;;;;;;;;;5134762;27;20030;-72
2021/08/01 05:14:22;;;;;;;5.00;2.40;;;;;;;;;;5134941;27;20023;-72
2021/08/01 05:16:47;;;;;;;9.45;2.20;;;;;;;;;;5134715;27;20019;-73
2021/08/01 05:19:13;;;;;;;6.38;2.20;;;;;;;;;;5134513;27;20106;-72
2021/08/01 05:21:38;;;;;;;5.63;2.33;;;;;;;;;;5134547;27;20055;-72
2021/08/01 05:24:04;;;;;;;4.80;2.53;;;;;;;;;;5134479;27;20071;-73
2021/08/01 05:26:29;;;;;;;4.63;2.10;;;;;;;;;;5134661;27;20375;-72
2021/08/01 05:28:55;;;;;;;4.72;2.17;;;;;;;;;;5134472;27;20023;-72
2021/08/01 05:31:20;;;;;;;5.32;1.95;;;;;;;;;;5134270;27;20106;-73
2021/08/01 05:33:45;;;;;;;7.40;2.17;;;;;;;;;;5134362;27;20027;-73
2021/08/01 05:36:11;;;;;;;7.60;2.25;;;;;;;;;;5134053;27;20057;-73
2021/08/01 05:38:37;;;;;;;4.43;1.95;;;;;;;;;;5134357;27;20023;-72
2021/08/01 05:41:03;;;;;;;6.30;2.55;;;;;;;;;;5134356;27;20023;-72
2021/08/01 05:43:29;;;;;;;5.70;2.22;;;;;;;;;;5134089;27;20374;-73
2021/08/01 05:45:55;;;;;;;6.70;2.28;;;;;;;;;;5133907;27;20068;-73
2021/08/01 05:48:21;;;;;;;3.80;2.00;;;;;;;;;;5133962;27;20023;-73
2021/08/01 05:50:46;;;;;;;7.03;2.10;;;;;;;;;;5134064;27;20475;-73
2021/08/01 05:53:13;;;;;;;4.65;1.92;;;;;;;;;;5133927;27;20072;-73
2021/08/01 05:55:38;;;;;;;4.93;1.98;;;;;;;;;;5134070;27;20023;-73
2021/08/01 05:58:03;;;;;;;4.13;1.77;;;;;;;;;;5134092;27;20026;-73
2021/08/01 06:00:29;;;;;;;4.68;2.28;;;;;;;;;;5132711;27;20019;-73
2021/08/01 06:02:54;;;;;;;3.97;1.95;;;;;;;;;;5134146;27;20065;-72
2021/08/01 06:05:20;;;;;;;4.18;1.85;;;;;;;;;;5115238;27;20095;-73
2021/08/01 06:07:45;;;;;;;4.88;2.00;;;;;;;;;;5133741;27;20075;-72
2021/08/01 06:10:11;;;;;;;3.15;1.50;;;;;;;;;;5133511;27;20102;-73
2021/08/01 06:12:36;;;;;;;3.97;1.90;;;;;;;;;;5133579;27;20023;-73
2021/08/01 06:15:03;;;;;;;4.68;1.70;;;;;;;;;;5133624;27;20058;-72
2021/08/01 06:17:29;;;;;;;4.90;1.88;;;;;;;;;;5133305;27;20034;-72
2021/08/01 06:19:55;;;;;;;6.80;1.60;;;;;;;;;;5133568;27;20019;-73
2021/08/01 06:22:22;;;;;;;6.18;2.00;;;;;;;;;;5133288;27;20027;-74
2021/08/01 06:24:47;;;;;;;5.93;1.70;;;;;;;;;;5132122;27;20327;-74
2021/08/01 06:27:12;;;;;;;3.35;1.48;;;;;;;;;;5133396;27;20285;-74
2021/08/01 06:29:38;;;;;;;5.90;1.83;;;;;;;;;;5133308;27;20023;-73
2021/08/01 06:32:03;;;;;;;6.10;1.70;;;;;;;;;;5133337;27;20048;-73
2021/08/01 06:34:29;;;;;;;8.13;1.80;;;;;;;;;;5133064;27;20060;-75
2021/08/01 06:36:54;;;;;;;5.80;1.42;;;;;;;;;;5133248;27;20023;-75
2021/08/01 06:39:20;;;;;;;4.78;1.67;;;;;;;;;;5133095;27;20011;-73
2021/08/01 06:41:45;;;;;;;6.45;1.80;;;;;;;;;;5133047;27;20023;-75
2021/08/01 06:44:10;;;;;;;8.68;1.90;;;;;;;;;;5132882;27;20397;-73
2021/08/01 06:46:36;;;;;;;3.28;1.85;;;;;;;;;;5132741;27;20104;-73
2021/08/01 06:49:01;;;;;;;6.85;1.80;;;;;;;;;;5132911;27;20023;-73
2021/08/01 06:51:27;;;;;;;8.20;2.08;;;;;;;;;;5132675;27;20015;-73
2021/08/01 06:53:52;;;;;;;8.00;2.03;;;;;;;;;;5133165;27;20019;-74
2021/08/01 06:56:19;;;;;;;3.80;1.60;;;;;;;;;;5132732;27;20059;-74
2021/08/01 06:58:44;;;;;;;4.07;1.88;;;;;;;;;;5132787;27;20043;-73
2021/08/01 07:01:11;;;;;;;5.10;1.80;;;;;;;;;;5132580;27;20410;-74
2021/08/01 07:03:36;;;;;;;5.07;1.75;;;;;;;;;;5132957;27;20421;-74
2021/08/01 07:06:01;;;;;;;4.70;1.88;;;;;;;;;;5132711;27;20055;-73
2021/08/01 07:08:27;;;;;;;6.32;1.70;;;;;;;;;;5132312;27;20019;-75
2021/08/01 07:10:52;;;;;;;7.47;1.83;;;;;;;;;;5133087;27;20027;-75
2021/08/01 07:13:18;;;;;;;4.53;1.70;;;;;;;;;;5113828;27;20114;-73
2021/08/01 07:15:43;;;;;;;3.20;1.63;;;;;;;;;;5132520;27;20061;-74
2021/08/01 07:18:09;;;;;;;5.75;1.40;;;;;;;;;;5132478;27;20076;-75
2021/08/01 07:20:35;;;;;;;3.75;1.40;;;;;;;;;;5132411;27;20052;-74
2021/08/01 07:23:00;;;;;;;6.30;1.98;;;;;;;;;;5132394;27;20038;-73
2021/08/01 07:25:26;;;;;;;4.47;1.92;;;;;;;;;;5132144;27;20035;-75
2021/08/01 07:27:52;;;;;;;7.50;2.20;;;;;;;;;;5132169;27;20015;-74
2021/08/01 07:30:18;;;;;;;5.28;1.67;;;;;;;;;;5131858;27;20023;-73
2021/08/01 07:32:43;;;;;;;6.82;1.92;;;;;;;;;;5132399;27;20031;-74
2021/08/01 07:35:09;;;;;;;7.05;1.55;;;;;;;;;;5132139;27;20071;-76
2021/08/01 07:37:35;;;;;;;7.78;1.55;;;;;;;;;;5131864;27;20067;-74
2021/08/01 07:40:00;;;;;;;4.60;1.70;;;;;;;;;;5132015;27;20093;-73
2021/08/01 07:42:26;;;;;;;4.03;1.23;;;;;;;;;;5131864;27;20031;-76
2021/08/01 07:44:54;;;;;;;4.53;1.70;;;;;;;;;;5132007;27;20106;-75
2021/08/01 07:47:24;;;;;;;4.47;1.52;;;;;;;;;;5131564;27;20089;-76
2021/08/01 07:49:51;;;;;;;7.15;2.33;;;;;;;;;;5131794;27;20075;-75
2021/08/01 07:52:18;;;;;;;4.57;1.52;;;;;;;;;;5131709;27;20158;-75
2021/08/01 07:54:43;;;;;;;5.03;1.58;;;;;;;;;;5131892;27;20033;-74
2021/08/01 07:57:30;;;;;;;9.23;1.80;;;;;;;;;;5131869;27;20022;-74
2021/08/01 07:59:57;;;;;;;5.00;1.80;;;;;;;;;;5131824;27;20486;-75
2021/08/01 08:02:23;;;;;;;5.53;1.63;;;;;;;;;;5131280;28;20019;-74
2021/08/01 08:04:49;;;;;;;4.43;1.42;;;;;;;;;;5131586;28;20042;-74
2021/08/01 08:07:15;;;;;;;5.97;2.08;;;;;;;;;;5132038;28;20023;-74
2021/08/01 08:09:40;;;;;;;4.20;1.65;;;;;;;;;;5131877;28;20449;-76
2021/08/01 08:12:06;;;;;;;6.10;1.88;;;;;;;;;;5131528;28;20015;-75
2021/08/01 08:14:32;;;;;;;4.78;1.80;;;;;;;;;;5131290;28;20027;-75
2021/08/01 08:16:58;;;;;;;5.45;1.50;;;;;;;;;;5131899;28;20023;-73
2021/08/01 08:19:23;;;;;;;5.93;1.70;;;;;;;;;;5131429;28;20015;-73
2021/08/01 08:21:49;;;;;;;5.47;1.90;;;;;;;;;;5131576;27;20042;-74
2021/08/01 08:24:14;;;;;;;3.45;1.52;;;;;;;;;;5135209;27;20458;-75
2021/08/01 08:26:40;;;;;;;4.38;1.50;;;;;;;;;;5135819;27;20023;-76
2021/08/01 08:29:05;;;;;;;4.07;1.30;;;;;;;;;;5136223;27;20020;-74
2021/08/01 08:31:31;;;;;;;4.38;1.60;;;;;;;;;;5135393;27;20026;-74
2021/08/01 08:33:56;;;;;;;3.47;1.50;;;;;;;;;;5135149;27;20038;-74
2021/08/01 08:36:22;;;;;;;7.03;1.90;;;;;;;;;;5133791;27;20039;-74
2021/08/01 08:38:48;;;;;;;6.45;1.85;;;;;;;;;;5135256;27;20351;-76
2021/08/01 08:41:16;;;;;;;5.05;2.20;;;;;;;;;;5135193;27;20509;-75
2021/08/01 08:43:44;;;;;;;6.50;1.77;;;;;;;;;;5136098;27;20527;-74
2021/08/01 08:46:11;;;;;;;7.18;1.70;;;;;;;;;;5130806;27;20482;-72
2021/08/01 08:48:38;;;;;;;4.43;1.80;;;;;;;;;;5135872;27;20377;-74
2021/08/01 08:51:09;;;;;;;3.95;1.58;;;;;;;;;;5135420;27;20023;-75
2021/08/01 08:53:39;;;;;;;7.32;1.95;;;;;;;;;;5133704;27;20390;-74
2021/08/01 08:56:07;;;;;;;5.25;1.88;;;;;;;;;;5135297;27;20037;-74
2021/08/01 08:58:33;;;;;;;6.22;1.60;;;;;;;;;;5136417;27;20094;-75
2021/08/01 09:00:58;;;;;;;6.20;1.67;;;;;;;;;;5136132;27;20613;-74
2021/08/01 09:03:24;;;;;;;4.80;1.58;;;;;;;;;;5135875;27;20047;-74
2021/08/01 09:05:55;;;;;;;5.57;1.48;;;;;;;;;;5135781;27;20075;-74
2021/08/01 09:08:20;;;;;;;5.47;1.90;;;;;;;;;;5135560;27;20030;-77
2021/08/01 09:10:46;;;;;;;6.25;1.60;;;;;;;;;;5135890;27;20015;-75
2021/08/01 09:13:11;;;;;;;5.78;1.67;;;;;;;;;;5135825;27;20022;-75
2021/08/01 09:15:37;;;;;;;5.18;1.88;;;;;;;;;;5134468;27;20053;-75
2021/08/01 09:18:09;;;;;;;7.22;1.95;;;;;;;;;;5135423;27;20011;-77
2021/08/01 09:20:35;;;;;;;4.53;1.70;;;;;;;;;;5134301;27;20521;-74
2021/08/01 09:23:00;;;;;;;5.93;1.73;;;;;;;;;;5135226;27;20034;-75
2021/08/01 09:25:30;;;;;;;4.05;1.90;;;;;;;;;;5134888;27;20035;-74
2021/08/01 09:28:23;;;;;;;2.55;1.48;;;;;;;;;;5134998;27;20370;-76
2021/08/01 09:30:58;;;;;;;3.92;1.60;;;;;;;;;;5135066;27;20106;-76
2021/08/01 09:33:40;;;;;;;5.70;1.92;;;;;;;;;;5134715;27;20080;-76
2021/08/01 09:36:16;;;;;;;4.47;1.30;;;;;;;;;;5133502;27;20023;-76
2021/08/01 09:38:46;;;;;;;4.07;1.23;;;;;;;;;;5134451;27;20108;-76
2021/08/01 09:41:12;;;;;;;3.55;1.80;;;;;;;;;;5134452;27;20027;-74
2021/08/01 09:43:45;;;;;;;3.53;1.40;;;;;;;;;;5133690;27;20027;-78
2021/08/01 09:46:12;;;;;;;4.18;1.55;;;;;;;;;;5134762;27;20043;-77
2021/08/01 09:48:37;;;;;;;5.05;1.65;;;;;;;;;;5134326;27;20380;-75
2021/08/01 09:51:05;;;;;;;5.88;1.40;;;;;;;;;;5134134;27;20106;-74
2021/08/01 09:53:32;;;;;;;4.68;1.70;;;;;;;;;;5133916;27;20509;-74
2021/08/01 09:56:21;;;;;;;3.10;1.40;;;;;;;;;;5134128;27;20033;-76
2021/08/01 09:58:48;;;;;;;3.05;1.30;;;;;;;;;;5134093;27;20035;-74
2021/08/01 10:01:14;;;;;;;3.70;1.42;;;;;;;;;;5133955;27;20102;-76
2021/08/01 10:03:45;;;;;;;4.35;1.50;;;;;;;;;;5115655;27;20105;-76
2021/08/01 10:06:18;;;;;;;4.80;1.83;;;;;;;;;;5133975;27;20087;-77
2021/08/01 10:08:46;;;;;;;6.07;1.35;;;;;;;;;;5133842;27;20027;-74
2021/08/01 10:11:14;;;;;;;4.82;1.73;;;;;;;;;;5133778;27;20058;-75
2021/08/01 10:13:40;;;;;;;6.07;1.40;;;;;;;;;;5133540;27;20027;-76
2021/08/01 10:16:09;;;;;;;3.75;1.48;;;;;;;;;;5133836;27;20019;-76
2021/08/01 10:18:36;;;;;;;3.70;1.30;;;;;;;;;;5133577;27;20072;-75
2021/08/01 10:21:02;;;;;;;3.90;1.52;;;;;;;;;;5133324;27;20033;-74
2021/08/01 10:23:31;;;;;;;3.03;1.50;;;;;;;;;;5134428;27;20390;-76
2021/08/01 10:26:00;;;;;;;3.45;1.40;;;;;;;;;;5134311;27;20023;-75
2021/08/01 10:28:27;;;;;;;4.63;1.20;;;;;;;;;;5132945;27;20034;-76
2021/08/01 10:30:57;;;;;;;3.50;1.30;;;;;;;;;;5130191;27;20060;-74
2021/08/01 10:33:25;;;;;;;6.20;1.40;;;;;;;;;;5133371;27;20045;-76
2021/08/01 10:35:56;;;;;;;2.97;1.20;;;;;;;;;;5132938;27;20071;-75
2021/08/01 10:38:23;;;;;;;3.85;1.45;;;;;;;;;;5132419;27;20030;-77
2021/08/01 10:40:53;;;;;;;4.85;1.40;;;;;;;;;;5133169;27;20106;-77
2021/08/01 10:43:27;;;;;;;2.15;1.20;;;;;;;;;;5133132;27;20447;-76
2021/08/01 10:45:52;;;;;;;4.13;1.30;;;;;;;;;;5132552;27;20019;-75
2021/08/01 10:48:26;;;;;;;3.53;1.33;;;;;;;;;;5132986;27;20038;-75
2021/08/01 10:50:53;;;;;;;4.38;1.25;;;;;;;;;;5132873;27;20123;-76
2021/08/01 10:53:19;;;;;;;5.28;1.70;;;;;;;;;;5132888;27;20026;-77
2021/08/01 10:55:45;;;;;;;5.55;1.10;;;;;;;;;;5132708;27;20023;-78
2021/08/01 10:58:12;;;;;;;3.28;1.30;;;;;;;;;;5132874;27;20034;-75
2021/08/01 11:01:03;;;;;;;4.57;1.40;;;;;;;;;;5132631;27;20470;-77
2021/08/01 11:03:29;;;;;;;4.25;1.35;;;;;;;;;;5132632;27;20116;-75
2021/08/01 11:05:56;;;;;;;3.45;1.50;;;;;;;;;;5132776;27;20050;-75
2021/08/01 11:08:22;;;;;;;3.92;1.50;;;;;;;;;;5132488;27;20130;-74
2021/08/01 11:11:12;;;;;;;5.10;1.40;;;;;;;;;;5132851;27;20417;-76
2021/08/01 11:13:48;;;;;;;4.15;1.40;;;;;;;;;;5132275;27;20019;-75
2021/08/01 11:16:34;;;;;;;4.20;1.35;;;;;;;;;;5132435;27;20019;-75
2021/08/01 11:19:00;;;;;;;2.95;1.30;;;;;;;;;;5131315;27;20047;-75
2021/08/01 11:21:39;;;;;;;3.30;1.40;;;;;;;;;;5132152;27;20050;-75
2021/08/01 11:24:09;;;;;;;4.32;1.42;;;;;;;;;;5132440;27;20269;-77
2021/08/01 11:26:36;;;;;;;2.42;1.30;;;;;;;;;;5132083;27;20364;-77
2021/08/01 11:29:11;;;;;;;3.40;2.38;;;;;;;;;;5132263;27;20023;-76
2021/08/01 11:32:07;;;;;;;3.65;1.20;;;;;;;;;;5131975;27;20027;-76
2021/08/01 11:34:33;;;;;;;5.05;1.58;;;;;;;;;;5132107;27;20023;-76
2021/08/01 11:37:18;;;;;;;5.25;1.40;;;;;;;;;;5132159;27;20107;-76
2021/08/01 11:39:58;;;;;;;5.53;1.50;;;;;;;;;;5131964;27;20023;-75
2021/08/01 11:42:25;;;;;;;6.30;1.45;;;;;;;;;;5132175;27;20030;-76
2021/08/01 11:44:57;;;;;;;6.55;1.23;;;;;;;;;;5132073;27;20019;-76
2021/08/01 11:47:23;;;;;;;1.95;1.30;;;;;;;;;;5131826;27;20074;-77
2021/08/01 11:49:49;;;;;;;3.22;1.30;;;;;;;;;;5131905;27;20495;-74
2021/08/01 11:52:45;;;;;;;5.07;1.67;;;;;;;;;;5132007;27;20420;-75
2021/08/01 11:55:16;;;;;;;3.00;1.27;;;;;;;;;;5132033;27;20071;-76
2021/08/01 11:57:44;;;;;;;3.40;1.17;;;;;;;;;;5131103;27;20380;-77
2021/08/01 12:00:10;;;;;;;4.63;1.38;;;;;;;;;;5132189;27;20676;-75
2021/08/01 12:02:38;;;;;;;2.63;1.00;;;;;;;;;;5131666;28;20466;-77
2021/08/01 12:05:04;;;;;;;3.58;1.10;;;;;;;;;;5132103;28;20027;-76
2021/08/01 12:07:48;;;;;;;4.28;1.30;;;;;;;;;;5131627;28;20034;-77
2021/08/01 12:10:25;;;;;;;2.83;1.23;;;;;;;;;;5131674;28;20027;-76
2021/08/01 12:12:52;;;;;;;2.42;1.30;;;;;;;;;;5131669;28;20015;-77
2021/08/01 12:15:18;;;;;;;3.85;1.20;;;;;;;;;;5131758;28;20386;-77
2021/08/01 12:17:44;;;;;;;3.78;1.33;;;;;;;;;;5131633;28;20466;-77
2021/08/01 12:20:10;;;;;;;3.55;1.30;;;;;;;;;;5131690;28;20096;-75
2021/08/01 12:22:35;;;;;;;4.05;1.40;;;;;;;;;;5131491;28;20022;-77
2021/08/01 12:25:03;;;;;;;2.67;1.10;;;;;;;;;;5131645;28;20359;-77
2021/08/01 12:27:37;;;;;;;3.38;1.17;;;;;;;;;;5131343;28;20106;-75
2021/08/01 12:30:05;;;;;;;4.32;1.40;;;;;;;;;;5113086;28;20023;-77
2021/08/01 12:32:50;;;;;;;1.95;1.00;;;;;;;;;;5131325;28;20019;-75
2021/08/01 12:35:20;;;;;;;4.47;1.30;;;;;;;;;;5131586;28;20019;-77
2021/08/01 12:37:52;;;;;;;5.50;1.30;;;;;;;;;;5131614;28;20104;-76
2021/08/01 12:40:42;;;;;;;4.22;1.30;;;;;;;;;;5131033;28;20522;-76
2021/08/01 12:43:10;;;;;;;4.60;1.33;;;;;;;;;;5112769;28;20076;-76
2021/08/01 12:45:43;;;;;;;3.78;1.30;;;;;;;;;;5131091;28;20076;-77
2021/08/01 12:48:11;;;;;;;4.05;1.50;;;;;;;;;;5070385;28;20400;-77
2021/08/01 12:50:43;;;;;;;88.13;79.40;;;;;;;;;;5070041;28;20025;-78
2021/08/01 12:53:09;;;;;;;11.27;10.23;;;;;;;;;;5070249;28;20029;-77
2021/08/01 12:55:34;;;;;;;5.50;3.30;;;;;;;;;;5086106;28;20121;-78
2021/08/01 12:58:08;;;;;;;14.38;8.45;;;;;;;;;;5090213;28;20024;-77
2021/08/01 13:00:36;;;;;;;4.28;1.83;;;;;;;;;;5089651;28;20482;-76
2021/08/01 13:03:05;;;;;;;18.67;16.67;;;;;;;;;;5090357;28;20032;-77
2021/08/01 13:05:34;;;;;;;15.30;11.18;;;;;;;;;;5094101;28;20024;-75
2021/08/01 13:08:01;;;;;;;9.48;6.18;;;;;;;;;;5095115;28;20387;-76
2021/08/01 13:10:27;;;;;;;22.92;19.08;;;;;;;;;;5091977;28;20365;-76
2021/08/01 13:13:13;;;;;;;15.18;13.13;;;;;;;;;;5092137;28;20498;-75
2021/08/01 13:15:41;;;;;;;6.38;2.83;;;;;;;;;;5091851;28;20038;-77
2021/08/01 13:18:20;;;;;;;5.13;3.78;;;;;;;;;;5089439;28;20035;-76
2021/08/01 13:20:46;;;;;;;5.13;3.10;;;;;;;;;;5094994;28;20636;-77
2021/08/01 13:23:30;;;;;;;5.40;3.08;;;;;;;;;;5093859;28;20093;-76
2021/08/01 13:25:56;;;;;;;11.68;7.32;;;;;;;;;;5093976;28;20103;-76
2021/08/01 13:28:47;;;;;;;5.35;2.00;;;;;;;;;;5093533;28;20035;-75
2021/08/01 13:31:13;;;;;;;10.88;9.95;;;;;;;;;;5093716;28;20028;-76
2021/08/01 13:33:39;;;;;;;4.88;3.42;;;;;;;;;;5093423;28;20024;-77
2021/08/01 13:36:05;;;;;;;9.25;4.80;;;;;;;;;;5092773;28;20036;-77
2021/08/01 13:38:30;;;;;;;10.73;8.68;;;;;;;;;;5096324;28;20028;-75
2021/08/01 13:40:56;;;;;;;10.63;9.57;;;;;;;;;;5094789;28;20093;-75
2021/08/01 13:43:22;;;;;;;4.82;3.60;;;;;;;;;;5094468;28;20020;-77
2021/08/01 13:45:48;;;;;;;17.27;15.55;;;;;;;;;;5093317;28;20571;-75
2021/08/01 13:48:14;;;;;;;4.35;2.47;;;;;;;;;;5091467;28;20028;-75
2021/08/01 13:50:39;;;;;;;4.75;2.90;;;;;;;;;;5093861;28;20036;-74
2021/08/01 13:53:06;;;;;;;7.57;3.45;;;;;;;;;;5093870;28;20441;-77
2021/08/01 13:55:32;;;;;;;5.88;2.20;;;;;;;;;;5094321;28;20471;-74
2021/08/01 13:58:05;;;;;;;5.60;2.90;;;;;;;;;;5097054;28;20060;-75
2021/08/01 14:00:31;;;;;;;4.80;1.75;;;;;;;;;;5093457;28;20096;-76
2021/08/01 14:02:59;;;;;;;4.38;2.10;;;;;;;;;;5093903;28;20032;-76
2021/08/01 14:05:24;;;;;;;5.43;2.15;;;;;;;;;;5098490;28;20047;-76
2021/08/01 14:07:50;;;;;;;4.85;2.40;;;;;;;;;;5093903;28;20058;-75
2021/08/01 14:10:16;;;;;;;5.57;2.58;;;;;;;;;;5092982;28;20174;-75
2021/08/01 14:12:41;;;;;;;6.03;2.13;;;;;;;;;;5092166;28;20051;-76
2021/08/01 14:15:09;;;;;;;4.32;2.05;;;;;;;;;;5111122;28;20370;-75
2021/08/01 14:17:35;;;;;;;6.65;2.90;;;;;;;;;;5105298;28;20086;-76
2021/08/01 14:20:01;;;;;;;4.07;2.55;;;;;;;;;;5094536;28;20102;-75
2021/08/01 14:22:26;;;;;;;4.30;1.90;;;;;;;;;;5097055;28;20316;-77
2021/08/01 14:24:52;;;;;;;6.50;2.25;;;;;;;;;;5093474;28;20031;-75
2021/08/01 14:27:23;;;;;;;5.53;3.47;;;;;;;;;;5104146;28;20526;-77
2021/08/01 14:29:49;;;;;;;5.45;2.50;;;;;;;;;;5113791;28;20026;-76
2021/08/01 14:32:14;;;;;;;5.68;1.60;;;;;;;;;;5093660;28;20115;-74
2021/08/01 14:34:46;;;;;;;7.13;1.70;;;;;;;;;;5096453;28;20541;-75
2021/08/01 14:37:13;;;;;;;5.28;1.63;;;;;;;;;;5092091;28;20060;-75
2021/08/01 14:39:40;;;;;;;9.98;5.70;;;;;;;;;;5091680;28;20494;-76
2021/08/01 14:42:10;;;;;;;3.80;2.10;;;;;;;;;;5098606;28;20027;-76
2021/08/01 14:44:36;;;;;;;5.13;2.90;;;;;;;;;;5112653;28;20424;-77
2021/08/01 14:47:10;;;;;;;4.25;1.98;;;;;;;;;;5093223;28;20396;-76